createdAt,value
2022-10-10T00:01:13.002Z,7.80
2022-10-10T00:03:40.910Z,7.60
2022-10-10T00:06:10.674Z,5.55
2022-10-10T00:08:38.778Z,5.75
2022-10-10T00:11:06.928Z,5.95
2022-10-10T00:13:34.964Z,6.07
2022-10-10T00:16:03.021Z,5.47
2022-10-10T00:18:31.098Z,5.00
2022-10-10T00:20:59.048Z,5.93
2022-10-10T00:23:28.404Z,5.03
2022-10-10T00:25:56.432Z,5.22
2022-10-10T00:28:24.401Z,5.63
2022-10-10T00:30:52.320Z,5.68
2022-10-10T00:33:20.322Z,5.28
2022-10-10T00:35:48.777Z,5.25
2022-10-10T00:38:16.702Z,6.07
2022-10-10T00:40:49.369Z,4.32
2022-10-10T00:43:17.469Z,5.38
2022-10-10T00:45:46.157Z,5.32
2022-10-10T00:48:15.246Z,5.35
2022-10-10T00:50:45.917Z,5.18
2022-10-10T00:53:14.031Z,6.63
2022-10-10T00:55:41.993Z,5.55
2022-10-10T00:58:11.267Z,5.05
2022-10-10T01:00:39.313Z,6.72
2022-10-10T01:03:07.279Z,5.88
2022-10-10T01:05:35.180Z,4.47
2022-10-10T01:08:03.664Z,4.32
2022-10-10T01:10:31.590Z,4.15
2022-10-10T01:13:08.027Z,4.93
2022-10-10T01:15:43.879Z,5.72
2022-10-10T01:18:15.417Z,5.50
2022-10-10T01:20:54.215Z,4.47
2022-10-10T01:23:57.038Z,4.38
2022-10-10T01:26:39.567Z,5.35
2022-10-10T01:29:10.977Z,4.60
2022-10-10T01:31:40.516Z,4.72
2022-10-10T01:34:12.577Z,5.25
2022-10-10T01:36:44.297Z,4.65
2022-10-10T01:39:14.760Z,5.68
2022-10-10T01:41:44.359Z,4.25
2022-10-10T01:44:13.659Z,6.45
2022-10-10T01:46:41.629Z,5.28
2022-10-10T01:49:09.534Z,4.10
2022-10-10T01:51:51.828Z,4.90
2022-10-10T01:54:26.772Z,4.93
2022-10-10T01:56:59.019Z,4.47
2022-10-10T01:59:33.809Z,4.32
2022-10-10T02:02:03.868Z,5.03
2022-10-10T02:04:33.870Z,4.82
2022-10-10T02:07:03.275Z,4.38
2022-10-10T02:09:33.268Z,5.18
2022-10-10T02:12:01.485Z,4.72
2022-10-10T02:14:33.024Z,4.32
2022-10-10T02:17:01.262Z,4.03
2022-10-10T02:19:29.166Z,4.18
2022-10-10T02:21:57.145Z,4.95
2022-10-10T02:24:25.416Z,5.45
2022-10-10T02:26:55.410Z,4.57
2022-10-10T02:29:25.804Z,3.53
2022-10-10T02:31:57.528Z,4.82
2022-10-10T02:34:26.958Z,4.25
2022-10-10T02:37:01.722Z,4.03
2022-10-10T02:39:30.633Z,4.28
2022-10-10T02:41:58.950Z,4.20
2022-10-10T02:44:26.897Z,4.47
2022-10-10T02:46:56.204Z,4.35
2022-10-10T02:49:24.672Z,4.35
2022-10-10T02:51:52.624Z,4.32
2022-10-10T02:54:20.567Z,3.90
2022-10-10T02:56:48.532Z,4.88
2022-10-10T02:59:16.429Z,4.30
2022-10-10T03:01:44.329Z,4.93
2022-10-10T03:04:13.700Z,4.07
2022-10-10T03:06:41.695Z,4.07
2022-10-10T03:09:09.553Z,3.90
2022-10-10T03:11:37.493Z,5.90
2022-10-10T03:14:05.395Z,3.90
2022-10-10T03:16:33.317Z,4.22
2022-10-10T03:19:03.062Z,4.07
2022-10-10T03:21:32.360Z,3.97
2022-10-10T03:24:00.268Z,3.83
2022-10-10T03:26:28.320Z,4.10
2022-10-10T03:28:56.249Z,3.47
2022-10-10T03:31:24.184Z,3.55
2022-10-10T03:33:52.129Z,3.85
2022-10-10T03:36:20.010Z,4.38
2022-10-10T03:38:49.362Z,3.67
2022-10-10T03:41:17.267Z,4.63
2022-10-10T03:43:45.159Z,4.68
2022-10-10T03:46:16.281Z,3.97
2022-10-10T03:48:44.509Z,4.10
2022-10-10T03:51:12.466Z,4.10
2022-10-10T03:53:40.355Z,3.90
2022-10-10T03:56:09.667Z,4.90
2022-10-10T03:58:37.610Z,4.03
2022-10-10T04:01:05.926Z,3.83
2022-10-10T04:03:33.919Z,4.25
2022-10-10T04:06:01.833Z,4.35
2022-10-10T04:08:30.074Z,4.13
2022-10-10T04:10:58.023Z,3.75
2022-10-10T04:13:27.635Z,4.72
2022-10-10T04:15:55.949Z,3.78
2022-10-10T04:18:23.879Z,3.70
2022-10-10T04:20:51.805Z,4.72
2022-10-10T04:23:19.798Z,3.85
2022-10-10T04:25:48.033Z,3.60
2022-10-10T04:28:16.308Z,3.60
2022-10-10T04:30:45.649Z,3.30
2022-10-10T04:33:13.802Z,3.58
2022-10-10T04:35:41.700Z,3.92
2022-10-10T04:38:09.576Z,3.75
2022-10-10T04:40:37.900Z,3.67
2022-10-10T04:43:05.824Z,6.00
2022-10-10T04:45:37.346Z,3.58
2022-10-10T04:48:07.166Z,3.40
2022-10-10T04:50:35.072Z,3.10
2022-10-10T04:53:02.965Z,3.58
2022-10-10T04:55:30.853Z,4.10
2022-10-10T04:57:58.992Z,3.92
2022-10-10T05:00:26.920Z,6.40
2022-10-10T05:02:54.991Z,4.65
2022-10-10T05:05:24.418Z,3.10
2022-10-10T05:07:55.428Z,4.07
2022-10-10T05:10:23.632Z,3.65
2022-10-10T05:12:52.049Z,3.83
2022-10-10T05:15:21.389Z,3.88
2022-10-10T05:17:49.369Z,3.33
2022-10-10T05:20:17.522Z,4.40
2022-10-10T05:22:46.880Z,3.83
2022-10-10T05:25:14.797Z,4.03
2022-10-10T05:27:42.744Z,3.17
2022-10-10T05:30:11.346Z,3.65
2022-10-10T05:32:39.319Z,3.42
2022-10-10T05:35:08.337Z,4.88
2022-10-10T05:37:36.746Z,4.18
2022-10-10T05:40:07.044Z,4.38
2022-10-10T05:42:35.001Z,5.30
2022-10-10T05:45:02.899Z,4.35
2022-10-10T05:47:31.080Z,3.80
2022-10-10T05:49:59.016Z,4.53
2022-10-10T05:52:26.967Z,3.88
2022-10-10T05:54:54.931Z,3.80
2022-10-10T05:57:25.526Z,4.25
2022-10-10T05:59:53.484Z,3.53
2022-10-10T06:02:21.505Z,3.42
2022-10-10T06:04:49.459Z,3.63
2022-10-10T06:07:17.372Z,3.63
2022-10-10T06:09:57.436Z,4.10
2022-10-10T06:12:26.866Z,3.67
2022-10-10T06:14:54.780Z,3.05
2022-10-10T06:17:22.701Z,3.72
2022-10-10T06:19:50.699Z,3.22
2022-10-10T06:22:18.604Z,4.10
2022-10-10T06:24:50.818Z,5.88
2022-10-10T06:27:20.752Z,3.00
2022-10-10T06:29:50.034Z,3.45
2022-10-10T06:32:17.949Z,3.65
2022-10-10T06:34:47.081Z,4.47
2022-10-10T06:37:15.016Z,7.93
2022-10-10T06:39:42.915Z,3.83
2022-10-10T06:42:12.640Z,3.70
2022-10-10T06:44:40.622Z,4.07
2022-10-10T06:47:11.505Z,3.95
2022-10-10T06:49:39.388Z,5.43
2022-10-10T06:52:07.505Z,5.18
2022-10-10T06:54:36.336Z,3.50
2022-10-10T06:57:04.293Z,3.60
2022-10-10T06:59:32.250Z,3.83
2022-10-10T07:02:00.485Z,4.07
2022-10-10T07:04:29.793Z,3.33
2022-10-10T07:06:57.746Z,5.65
2022-10-10T07:09:26.416Z,4.63
2022-10-10T07:11:54.477Z,3.70
2022-10-10T07:14:22.514Z,3.17
2022-10-10T07:16:50.455Z,3.70
2022-10-10T07:19:19.154Z,3.05
2022-10-10T07:21:48.487Z,4.32
2022-10-10T07:24:16.376Z,3.10
2022-10-10T07:26:44.227Z,3.60
2022-10-10T07:29:12.135Z,4.68
2022-10-10T07:31:40.052Z,3.80
2022-10-10T07:34:08.022Z,5.68
2022-10-10T07:36:37.894Z,3.38
2022-10-10T07:39:07.369Z,3.60
2022-10-10T07:41:35.235Z,3.88
2022-10-10T07:44:03.835Z,3.42
2022-10-10T07:46:33.378Z,3.22
2022-10-10T07:49:01.433Z,4.13
2022-10-10T07:51:29.439Z,3.25
2022-10-10T07:53:58.124Z,3.55
2022-10-10T07:56:27.555Z,3.70
2022-10-10T07:58:55.525Z,3.70
2022-10-10T08:01:23.532Z,4.50
2022-10-10T08:03:51.786Z,3.40
2022-10-10T08:06:19.786Z,3.65
2022-10-10T08:08:51.574Z,3.53
2022-10-10T08:11:20.225Z,5.80
2022-10-10T08:13:49.563Z,4.65
2022-10-10T08:16:17.964Z,4.28
2022-10-10T08:18:45.991Z,3.15
2022-10-10T08:21:14.714Z,3.13
2022-10-10T08:23:42.711Z,3.45
2022-10-10T08:26:11.822Z,4.30
2022-10-10T08:28:40.124Z,3.65
2022-10-10T08:31:27.875Z,3.90
2022-10-10T08:33:57.582Z,3.75
2022-10-10T08:36:25.795Z,4.05
2022-10-10T08:38:57.432Z,3.60
2022-10-10T08:41:30.641Z,3.42
2022-10-10T08:44:00.990Z,3.10
2022-10-10T08:46:36.084Z,5.75
2022-10-10T08:49:14.196Z,4.53
2022-10-10T08:51:42.378Z,3.92
2022-10-10T08:54:10.845Z,3.80
2022-10-10T08:56:39.011Z,4.63
2022-10-10T08:59:10.461Z,3.95
2022-10-10T09:02:18.883Z,3.45
2022-10-10T09:04:30.663Z,3.70
2022-10-10T09:07:05.979Z,3.80
2022-10-10T09:09:37.783Z,4.32
2022-10-10T09:12:15.828Z,3.40
2022-10-10T09:14:45.870Z,6.90
2022-10-10T09:17:43.050Z,7.68
2022-10-10T09:20:18.246Z,4.95
2022-10-10T09:22:49.992Z,4.88
2022-10-10T09:25:19.575Z,4.25
2022-10-10T09:27:52.261Z,4.82
2022-10-10T09:30:21.130Z,6.75
2022-10-10T09:32:52.216Z,6.07
2022-10-10T09:35:22.622Z,5.18
2022-10-10T09:37:51.215Z,5.00
2022-10-10T09:40:22.906Z,5.28
2022-10-10T09:42:50.863Z,4.55
2022-10-10T09:45:20.339Z,4.20
2022-10-10T09:47:54.071Z,4.45
2022-10-10T09:50:22.488Z,4.00
2022-10-10T09:52:50.703Z,4.57
2022-10-10T09:55:26.599Z,4.20
2022-10-10T09:57:55.306Z,3.97
2022-10-10T10:00:29.372Z,3.95
2022-10-10T10:03:15.327Z,3.83
2022-10-10T10:05:45.320Z,6.20
2022-10-10T10:08:29.527Z,3.85
2022-10-10T10:10:59.634Z,4.40
2022-10-10T10:13:32.055Z,4.38
2022-10-10T10:16:30.913Z,4.47
2022-10-10T10:19:00.238Z,5.03
2022-10-10T10:21:30.242Z,4.07
2022-10-10T10:23:59.620Z,5.35
2022-10-10T10:26:30.652Z,3.28
2022-10-10T10:28:59.066Z,3.63
2022-10-10T10:32:16.442Z,3.83
2022-10-10T10:35:02.130Z,3.60
2022-10-10T10:37:34.938Z,2.97
2022-10-10T10:40:19.746Z,3.88
2022-10-10T10:43:13.917Z,2.92
2022-10-10T10:45:46.316Z,3.65
2022-10-10T10:48:20.973Z,4.50
2022-10-10T10:50:52.299Z,3.60
2022-10-10T10:53:23.006Z,4.63
2022-10-10T10:55:52.666Z,3.63
2022-10-10T11:01:57.982Z,3.72
2022-10-10T11:05:23.425Z,3.70
2022-10-10T11:07:39.578Z,2.97
2022-10-10T11:10:12.372Z,3.70
2022-10-10T11:12:47.832Z,3.10
2022-10-10T11:15:17.858Z,4.03
2022-10-10T11:17:48.453Z,3.60
2022-10-10T11:20:22.362Z,2.92
2022-10-10T11:22:52.939Z,4.37
2022-10-10T11:25:23.898Z,3.15
2022-10-10T11:27:53.296Z,3.53
2022-10-10T11:30:23.076Z,5.78
2022-10-10T11:32:53.302Z,3.00
2022-10-10T11:35:28.008Z,3.40
2022-10-10T11:38:00.449Z,3.55
2022-10-10T11:40:44.561Z,5.00
2022-10-10T11:43:15.664Z,3.27
2022-10-10T11:45:47.251Z,3.53
2022-10-10T11:48:22.250Z,3.33
2022-10-10T11:50:53.105Z,3.40
2022-10-10T11:53:24.315Z,3.08
2022-10-10T11:55:56.003Z,2.95
2022-10-10T11:58:28.393Z,3.13
2022-10-10T12:00:58.200Z,3.58
2022-10-10T12:03:26.373Z,3.47
2022-10-10T12:05:57.747Z,2.83
2022-10-10T12:08:31.393Z,3.20
2022-10-10T12:11:01.695Z,2.88
2022-10-10T12:13:30.343Z,2.80
2022-10-10T12:15:59.497Z,2.60
2022-10-10T12:18:29.403Z,2.45
2022-10-10T12:21:07.798Z,3.30
2022-10-10T12:23:37.194Z,2.67
2022-10-10T12:26:05.272Z,3.10
2022-10-10T12:28:37.316Z,3.70
2022-10-10T12:31:37.881Z,3.00
2022-10-10T12:34:16.971Z,2.90
2022-10-10T12:36:58.292Z,2.50
2022-10-10T12:39:35.459Z,3.05
2022-10-10T12:42:03.583Z,2.60
2022-10-10T12:44:44.641Z,2.72
2022-10-10T12:48:04.474Z,2.95
2022-10-10T12:50:34.541Z,2.70
2022-10-10T12:53:03.504Z,2.45
2022-10-10T12:55:33.785Z,2.70
2022-10-10T12:58:03.299Z,2.60
2022-10-10T13:00:37.959Z,2.90
2022-10-10T13:03:27.691Z,3.13
2022-10-10T13:05:55.670Z,2.83
2022-10-10T13:08:25.743Z,3.05
2022-10-10T13:11:05.608Z,2.70
2022-10-10T13:13:33.879Z,3.13
2022-10-10T13:16:08.238Z,2.80
2022-10-10T13:18:37.798Z,2.70
2022-10-10T13:21:07.156Z,2.90
2022-10-10T13:23:35.504Z,2.47
2022-10-10T13:26:04.837Z,2.60
2022-10-10T13:28:32.834Z,3.08
2022-10-10T13:31:01.466Z,3.10
2022-10-10T13:33:31.642Z,2.83
2022-10-10T13:36:06.303Z,3.00
2022-10-10T13:38:34.257Z,3.35
2022-10-10T13:41:05.944Z,3.03
2022-10-10T13:43:34.400Z,2.80
2022-10-10T13:46:06.959Z,3.15
2022-10-10T13:49:15.263Z,2.50
2022-10-10T13:51:44.521Z,3.17
2022-10-10T13:54:51.547Z,2.72
2022-10-10T13:57:23.204Z,3.38
2022-10-10T13:59:59.172Z,2.92
2022-10-10T14:02:47.205Z,2.95
2022-10-10T14:05:17.174Z,3.28
2022-10-10T14:07:48.889Z,3.40
2022-10-10T14:10:19.800Z,3.05
2022-10-10T14:12:52.654Z,3.03
2022-10-10T14:15:36.271Z,2.53
2022-10-10T14:18:16.777Z,3.00
2022-10-10T14:20:44.894Z,2.90
2022-10-10T14:23:16.767Z,2.80
2022-10-10T14:25:45.316Z,3.40
2022-10-10T14:28:17.523Z,2.92
2022-10-10T14:30:45.459Z,3.05
2022-10-10T14:33:14.557Z,3.00
2022-10-10T14:35:42.558Z,2.75
2022-10-10T14:38:12.361Z,3.00
2022-10-10T14:40:40.263Z,3.22
2022-10-10T14:43:14.960Z,3.20
2022-10-10T14:45:50.216Z,3.40
2022-10-10T14:48:37.320Z,4.45
2022-10-10T14:51:33.933Z,2.65
2022-10-10T14:54:13.679Z,2.63
2022-10-10T14:57:08.426Z,3.15
2022-10-10T14:59:46.221Z,3.08
2022-10-10T15:02:19.679Z,2.63
2022-10-10T15:04:47.611Z,3.35
2022-10-10T15:07:16.300Z,2.55
2022-10-10T15:10:03.990Z,2.83
2022-10-10T15:12:33.244Z,2.63
2022-10-10T15:15:01.254Z,3.08
2022-10-10T15:17:35.401Z,2.78
2022-10-10T15:20:03.781Z,2.85
2022-10-10T15:22:32.515Z,3.05
2022-10-10T15:25:01.008Z,2.72
2022-10-10T15:27:29.764Z,2.70
2022-10-10T15:29:57.713Z,2.70
2022-10-10T15:32:26.393Z,2.40
2022-10-10T15:34:55.740Z,2.58
2022-10-10T15:37:25.981Z,2.65
2022-10-10T15:39:53.985Z,3.05
2022-10-10T15:42:23.284Z,3.42
2022-10-10T15:44:52.656Z,2.65
2022-10-10T15:47:20.776Z,5.53
2022-10-10T15:49:49.629Z,2.58
2022-10-10T15:52:23.015Z,2.40
2022-10-10T15:54:52.664Z,2.28
2022-10-10T15:57:20.669Z,2.70
2022-10-10T15:59:49.380Z,2.67
2022-10-10T16:02:17.323Z,3.13
2022-10-10T16:04:46.145Z,2.65
2022-10-10T16:07:27.163Z,2.42
2022-10-10T16:09:59.127Z,3.17
2022-10-10T16:12:27.281Z,3.03
2022-10-10T16:14:55.839Z,2.22
2022-10-10T16:17:24.058Z,2.58
2022-10-10T16:19:52.968Z,2.20
2022-10-10T16:22:21.443Z,2.65
2022-10-10T16:25:10.235Z,2.60
2022-10-10T16:27:39.530Z,3.22
2022-10-10T16:30:09.386Z,2.22
2022-10-10T16:32:41.991Z,2.85
2022-10-10T16:35:11.719Z,3.00
2022-10-10T16:37:39.741Z,2.80
2022-10-10T16:40:09.141Z,2.63
2022-10-10T16:42:37.131Z,2.45
2022-10-10T16:45:08.250Z,2.85
2022-10-10T16:48:12.958Z,2.40
2022-10-10T16:50:41.910Z,2.45
2022-10-10T16:53:12.180Z,2.60
2022-10-10T16:55:41.527Z,2.38
2022-10-10T16:58:09.695Z,3.08
2022-10-10T17:00:41.458Z,2.30
2022-10-10T17:03:09.463Z,2.70
2022-10-10T17:05:38.117Z,2.30
2022-10-10T17:08:06.584Z,2.63
2022-10-10T17:10:35.808Z,2.60
2022-10-10T17:13:04.045Z,3.00
2022-10-10T17:15:32.806Z,2.78
2022-10-10T17:18:04.606Z,2.42
2022-10-10T17:20:35.794Z,2.57
2022-10-10T17:23:03.899Z,2.63
2022-10-10T17:25:32.711Z,2.47
2022-10-10T17:28:00.726Z,2.95
2022-10-10T17:30:29.765Z,3.17
2022-10-10T17:32:57.667Z,2.78
2022-10-10T17:35:27.646Z,3.15
2022-10-10T17:37:56.101Z,2.42
2022-10-10T17:40:25.031Z,2.70
2022-10-10T17:42:53.017Z,2.45
2022-10-10T17:45:22.268Z,2.40
2022-10-10T17:47:50.221Z,2.60
2022-10-10T17:50:19.161Z,3.70
2022-10-10T17:52:51.969Z,3.40
2022-10-10T17:55:20.679Z,3.00
2022-10-10T17:57:49.398Z,2.75
2022-10-10T18:00:18.919Z,2.55
2022-10-10T18:02:46.868Z,2.40
2022-10-10T18:05:16.873Z,3.35
2022-10-10T18:07:45.322Z,2.90
2022-10-10T18:10:15.402Z,2.40
2022-10-10T18:12:43.322Z,2.60
2022-10-10T18:15:12.518Z,2.67
2022-10-10T18:18:42.489Z,2.90
2022-10-10T18:21:14.241Z,2.42
2022-10-10T18:23:42.670Z,2.80
2022-10-10T18:26:16.056Z,3.50
2022-10-10T18:28:44.164Z,2.47
2022-10-10T18:31:15.950Z,2.15
2022-10-10T18:33:44.808Z,2.38
2022-10-10T18:36:14.834Z,2.60
2022-10-10T18:38:42.734Z,2.60
2022-10-10T18:41:14.276Z,3.10
2022-10-10T18:43:43.341Z,3.25
2022-10-10T18:46:13.916Z,3.92
2022-10-10T18:48:41.889Z,2.75
2022-10-10T18:51:12.975Z,3.10
2022-10-10T18:53:44.796Z,2.40
2022-10-10T18:56:16.303Z,3.13
2022-10-10T18:58:44.774Z,2.70
2022-10-10T19:01:14.777Z,3.05
2022-10-10T19:03:43.276Z,2.63
2022-10-10T19:06:12.937Z,2.45
2022-10-10T19:08:41.159Z,3.03
2022-10-10T19:11:10.951Z,2.92
2022-10-10T19:13:40.325Z,2.30
2022-10-10T19:16:09.357Z,2.72
2022-10-10T19:18:37.328Z,2.17
2022-10-10T19:21:07.632Z,2.20
2022-10-10T19:23:35.793Z,2.95
2022-10-10T19:26:05.248Z,2.25
2022-10-10T19:28:33.422Z,2.60
2022-10-10T19:31:07.230Z,2.55
2022-10-10T19:33:35.212Z,3.40
2022-10-10T19:36:04.235Z,3.42
2022-10-10T19:38:33.740Z,3.58
2022-10-10T19:41:03.142Z,2.80
2022-10-10T19:43:31.175Z,2.88
2022-10-10T19:46:00.180Z,2.65
2022-10-10T19:48:31.437Z,2.58
2022-10-10T19:51:00.201Z,2.53
2022-10-10T19:53:30.811Z,3.15
2022-10-10T19:55:59.955Z,2.72
2022-10-10T19:58:28.408Z,3.20
2022-10-10T20:00:57.146Z,2.85
2022-10-10T20:03:25.227Z,3.25
2022-10-10T20:05:55.333Z,2.53
2022-10-10T20:08:23.441Z,2.40
2022-10-10T20:10:53.752Z,2.17
2022-10-10T20:13:21.874Z,2.35
2022-10-10T20:15:50.800Z,2.83
2022-10-10T20:18:19.112Z,2.60
2022-10-10T20:20:49.950Z,3.03
2022-10-10T20:23:20.276Z,2.90
2022-10-10T20:25:48.329Z,2.65
2022-10-10T20:28:18.075Z,2.70
2022-10-10T20:30:48.460Z,3.03
2022-10-10T20:33:17.145Z,2.50
2022-10-10T20:35:46.843Z,2.42
2022-10-10T20:38:15.813Z,2.50
2022-10-10T20:40:45.701Z,2.30
2022-10-10T20:43:15.984Z,2.70
2022-10-10T20:45:44.395Z,2.22
2022-10-10T20:48:13.066Z,2.70
2022-10-10T20:50:41.030Z,2.38
2022-10-10T20:53:09.773Z,2.75
2022-10-10T20:55:38.994Z,2.72
2022-10-10T20:58:09.083Z,2.90
2022-10-10T21:00:40.756Z,2.10
2022-10-10T21:03:09.463Z,2.40
2022-10-10T21:05:37.355Z,2.47
2022-10-10T21:08:06.278Z,2.70
2022-10-10T21:10:34.584Z,2.50
2022-10-10T21:13:03.176Z,3.70
2022-10-10T21:15:32.541Z,2.55
2022-10-10T21:18:01.389Z,2.08
2022-10-10T21:20:29.331Z,2.30
2022-10-10T21:22:59.055Z,2.42
2022-10-10T21:25:26.989Z,2.53
2022-10-10T21:27:55.614Z,2.47
2022-10-10T21:30:25.169Z,2.42
2022-10-10T21:32:55.225Z,2.53
2022-10-10T21:35:23.108Z,2.30
2022-10-10T21:37:52.168Z,2.40
2022-10-10T21:40:20.101Z,2.53
2022-10-10T21:42:48.637Z,2.10
2022-10-10T21:45:16.771Z,2.72
2022-10-10T21:47:45.384Z,2.80
2022-10-10T21:50:15.261Z,2.45
2022-10-10T21:52:44.039Z,2.40
2022-10-10T21:55:12.641Z,2.85
2022-10-10T21:57:40.816Z,2.50
2022-10-10T22:00:10.145Z,2.55
2022-10-10T22:02:40.646Z,2.70
2022-10-10T22:05:11.219Z,2.35
2022-10-10T22:07:40.575Z,2.50
2022-10-10T22:10:09.184Z,3.05
2022-10-10T22:12:37.397Z,2.25
2022-10-10T22:15:06.157Z,2.45
2022-10-10T22:17:34.109Z,2.08
2022-10-10T22:20:02.075Z,1.92
2022-10-10T22:22:30.061Z,2.97
2022-10-10T22:24:59.451Z,2.53
2022-10-10T22:27:27.567Z,2.97
2022-10-10T22:29:55.831Z,2.53
2022-10-10T22:32:23.788Z,2.20
2022-10-10T22:34:52.099Z,2.08
2022-10-10T22:37:20.070Z,2.58
2022-10-10T22:39:48.085Z,3.45
2022-10-10T22:42:17.520Z,2.30
2022-10-10T22:44:45.948Z,2.10
2022-10-10T22:47:13.875Z,2.40
2022-10-10T22:49:41.798Z,3.25
2022-10-10T22:52:10.614Z,2.45
2022-10-10T22:54:38.647Z,2.40
2022-10-10T22:57:07.254Z,2.67
2022-10-10T22:59:37.665Z,2.20
2022-10-10T23:02:06.152Z,2.78
2022-10-10T23:04:34.801Z,2.40
2022-10-10T23:07:03.574Z,2.30
2022-10-10T23:09:31.689Z,2.25
2022-10-10T23:11:59.624Z,2.55
2022-10-10T23:14:27.613Z,1.90
2022-10-10T23:16:56.973Z,2.10
2022-10-10T23:19:25.013Z,2.20
2022-10-10T23:21:52.993Z,2.63
2022-10-10T23:24:20.858Z,2.55
2022-10-10T23:26:48.738Z,2.20
2022-10-10T23:29:16.664Z,2.63
2022-10-10T23:31:44.549Z,2.35
2022-10-10T23:34:13.988Z,2.70
2022-10-10T23:36:41.830Z,2.55
2022-10-10T23:39:10.183Z,2.30
2022-10-10T23:41:38.187Z,2.17
2022-10-10T23:44:06.216Z,2.33
2022-10-10T23:46:34.119Z,2.45
2022-10-10T23:49:01.995Z,1.80
2022-10-10T23:51:31.303Z,2.20
2022-10-10T23:53:59.218Z,2.58
2022-10-10T23:56:27.315Z,1.83
2022-10-10T23:58:55.238Z,2.35
